Time;durP1;ratioP1;P1;durP2;ratioP2;P2;SDS_P1;SDS_P2;PMS_P1;PMS_P2;Temp;Humidity;BMP_temperature;BMP_pressure;BME280_temperature;BME280_humidity;BME280_pressure;Samples;Min_cycle;Max_cycle;Signal;HPM_P1;HPM_P2
2020/12/21 00:01:22;;;;;;;25.60;16.35;;;;;;;2.19;76.56;96505.75;4990609;28;20479;-59
2020/12/21 00:03:48;;;;;;;28.15;16.63;;;;;;;2.42;75.89;96504.44;4992345;28;20129;-60
2020/12/21 00:06:15;;;;;;;27.13;16.48;;;;;;;2.58;75.80;96509.53;4990958;28;20058;-59
2020/12/21 00:08:42;;;;;;;26.90;17.08;;;;;;;2.71;75.82;96499.38;4991767;28;20120;-60
2020/12/21 00:11:09;;;;;;;25.02;15.75;;;;;;;2.79;75.69;96493.47;4991288;28;20560;-58
2020/12/21 00:13:45;;;;;;;28.10;17.80;;;;;;;2.95;74.94;96494.28;4991982;28;20058;-56
2020/12/21 00:16:12;;;;;;;24.80;16.17;;;;;;;3.01;75.30;96491.31;4986127;28;20047;-59
2020/12/21 00:18:39;;;;;;;27.10;17.33;;;;;;;3.10;74.83;96496.13;4988981;28;20050;-59
2020/12/21 00:21:08;;;;;;;29.15;17.75;;;;;;;3.01;75.02;96487.84;4991045;28;20057;-59
2020/12/21 00:23:34;;;;;;;26.35;16.58;;;;;;;3.08;75.01;96490.25;4991800;28;20142;-59
2020/12/21 00:26:09;;;;;;;24.42;15.25;;;;;;;3.01;75.76;96485.97;4990793;28;20504;-60
2020/12/21 00:28:36;;;;;;;24.63;16.42;;;;;;;3.01;75.68;96477.97;4991453;28;20125;-60
2020/12/21 00:31:02;;;;;;;24.67;16.08;;;;;;;3.21;75.32;96489.69;4990200;28;20057;-59
2020/12/21 00:33:33;;;;;;;24.42;15.88;;;;;;;3.22;75.23;96473.38;4996051;28;20124;-56
2020/12/21 00:36:00;;;;;;;25.15;16.38;;;;;;;3.34;75.17;96475.72;4994719;28;20125;-59
2020/12/21 00:38:26;;;;;;;25.63;16.38;;;;;;;3.31;74.92;96467.47;4995802;28;20058;-57
2020/12/21 00:40:53;;;;;;;21.50;15.55;;;;;;;3.47;74.68;96482.38;4994991;28;20069;-61
2020/12/21 00:43:19;;;;;;;21.70;14.90;;;;;;;3.52;74.59;96482.38;4994303;28;20054;-58
2020/12/21 00:45:46;;;;;;;22.33;14.98;;;;;;;3.36;74.61;96456.75;4994175;28;20058;-58
2020/12/21 00:48:12;;;;;;;26.88;16.33;;;;;;;3.49;74.52;96485.59;4994509;28;20057;-59
2020/12/21 00:50:39;;;;;;;25.65;15.63;;;;;;;3.50;74.39;96490.66;4994240;28;20042;-58
2020/12/21 00:53:05;;;;;;;22.55;15.38;;;;;;;3.54;74.06;96496.25;4994368;28;20046;-59
2020/12/21 00:55:32;;;;;;;25.30;16.48;;;;;;;3.29;75.04;96507.84;4994342;28;20500;-58
2020/12/21 00:57:58;;;;;;;23.02;15.73;;;;;;;2.74;76.45;96513.00;4995156;28;20052;-59
2020/12/21 01:00:24;;;;;;;26.20;15.90;;;;;;;2.23;79.03;96514.81;4994622;28;20423;-58
2020/12/21 01:02:51;;;;;;;22.40;15.23;;;;;;;2.40;78.71;96507.38;4995117;28;20082;-59
2020/12/21 01:05:17;;;;;;;24.63;15.10;;;;;;;2.77;77.64;96501.78;4994214;28;20426;-58
2020/12/21 01:07:44;;;;;;;26.33;16.33;;;;;;;3.09;76.53;96506.03;4993684;28;20041;-59
2020/12/21 01:10:10;;;;;;;25.67;15.98;;;;;;;3.32;75.27;96518.00;4993136;28;20133;-59
2020/12/21 01:12:37;;;;;;;22.70;16.17;;;;;;;3.42;74.44;96504.63;4994325;28;20057;-60
2020/12/21 01:15:04;;;;;;;24.58;15.32;;;;;;;3.47;74.95;96515.28;4995111;28;20042;-58
2020/12/21 01:17:32;;;;;;;25.83;15.70;;;;;;;3.32;75.26;96512.66;4993768;28;20030;-58
2020/12/21 01:19:59;;;;;;;25.85;16.45;;;;;;;3.40;75.29;96520.13;4976009;28;20050;-61
2020/12/21 01:22:26;;;;;;;23.45;15.88;;;;;;;3.28;75.94;96523.13;4976072;28;20055;-62
2020/12/21 01:24:52;;;;;;;24.23;16.45;;;;;;;3.11;76.81;96513.78;4975912;28;20058;-59
2020/12/21 01:27:18;;;;;;;24.58;15.43;;;;;;;3.14;76.83;96529.28;4973820;28;20130;-62
2020/12/21 01:29:45;;;;;;;23.02;15.15;;;;;;;3.09;76.83;96538.13;4975692;28;20047;-61
2020/12/21 01:32:12;;;;;;;21.90;14.52;;;;;;;3.24;76.15;96531.94;4975442;28;20050;-61
2020/12/21 01:34:38;;;;;;;23.60;15.65;;;;;;;3.40;75.64;96538.06;4975597;28;20054;-61
2020/12/21 01:37:05;;;;;;;22.52;15.25;;;;;;;3.43;74.72;96524.94;4975341;28;20047;-62
2020/12/21 01:39:31;;;;;;;22.55;15.35;;;;;;;3.60;74.65;96534.50;4975558;28;20178;-60
2020/12/21 01:41:58;;;;;;;23.27;15.65;;;;;;;3.65;74.32;96526.47;4974776;28;20130;-61
2020/12/21 01:44:24;;;;;;;22.00;15.65;;;;;;;3.67;74.16;96530.50;4975479;28;20129;-60
2020/12/21 01:46:51;;;;;;;23.83;15.38;;;;;;;3.66;74.30;96533.44;4975013;28;20142;-61
2020/12/21 01:49:17;;;;;;;23.45;16.02;;;;;;;3.64;74.70;96523.00;4975241;28;20246;-62
2020/12/21 01:51:43;;;;;;;23.45;15.75;;;;;;;3.70;74.72;96532.59;4974030;28;20050;-61
2020/12/21 01:54:10;;;;;;;21.58;14.85;;;;;;;3.82;74.26;96521.59;4975083;28;20178;-61
2020/12/21 01:56:36;;;;;;;23.35;14.93;;;;;;;3.95;74.01;96521.00;4974842;28;20125;-60
2020/12/21 01:59:03;;;;;;;21.10;14.20;;;;;;;4.02;73.98;96527.94;4974855;28;20110;-59
2020/12/21 02:01:31;;;;;;;22.42;14.88;;;;;;;4.12;73.39;96523.31;4974954;28;20055;-60
2020/12/21 02:03:58;;;;;;;20.17;14.38;;;;;;;4.10;73.60;96519.34;4975112;28;20427;-59
2020/12/21 02:06:25;;;;;;;22.88;15.80;;;;;;;4.04;73.32;96505.16;4974576;28;20046;-61
2020/12/21 02:08:52;;;;;;;22.00;15.00;;;;;;;4.12;73.51;96523.31;4974953;28;20046;-60
2020/12/21 02:11:19;;;;;;;21.80;15.52;;;;;;;3.97;74.23;96516.16;4974888;28;20089;-60
2020/12/21 02:13:46;;;;;;;22.90;15.48;;;;;;;3.79;75.05;96522.13;4974817;28;20046;-61
2020/12/21 02:16:15;;;;;;;25.55;15.95;;;;;;;3.77;75.15;96529.66;4975062;28;20335;-62
2020/12/21 02:18:42;;;;;;;20.98;15.02;;;;;;;3.62;75.61;96532.38;4974887;28;20071;-63
2020/12/21 02:21:09;;;;;;;21.50;14.80;;;;;;;3.67;75.24;96529.66;4974752;28;20050;-59
2020/12/21 02:23:35;;;;;;;22.33;15.65;;;;;;;3.59;75.05;96514.19;4974849;28;20078;-61
2020/12/21 02:26:02;;;;;;;22.98;15.48;;;;;;;3.76;75.40;96530.72;4974488;28;20078;-62
2020/12/21 02:28:28;;;;;;;22.10;15.63;;;;;;;3.90;75.06;96529.06;4974764;28;20073;-61
2020/12/21 02:30:54;;;;;;;20.73;15.15;;;;;;;3.97;74.42;96532.22;4974623;28;20055;-61
2020/12/21 02:33:21;;;;;;;22.85;15.70;;;;;;;3.85;74.92;96530.94;4975104;28;20061;-60
2020/12/21 02:35:47;;;;;;;22.90;15.25;;;;;;;3.74;75.51;96530.19;4974301;28;20047;-62
2020/12/21 02:38:14;;;;;;;21.17;14.35;;;;;;;3.66;75.79;96520.03;4974476;28;20215;-61
2020/12/21 02:40:41;;;;;;;21.85;15.00;;;;;;;3.70;76.18;96524.56;4974185;28;20055;-62
2020/12/21 02:43:19;;;;;;;24.77;15.60;;;;;;;3.90;75.79;96523.72;4974057;28;20150;-61
2020/12/21 02:45:46;;;;;;;23.70;16.63;;;;;;;3.99;75.63;96511.31;4973879;28;20078;-62
2020/12/21 02:48:12;;;;;;;22.20;15.65;;;;;;;4.02;75.72;96514.53;4973931;28;20535;-60
2020/12/21 02:50:41;;;;;;;22.25;15.20;;;;;;;4.08;75.79;96513.44;4974459;28;20054;-60
2020/12/21 02:53:07;;;;;;;21.95;15.10;;;;;;;4.15;75.66;96511.25;4973810;28;20133;-61
2020/12/21 02:55:33;;;;;;;22.05;15.57;;;;;;;4.24;75.11;96506.91;4974002;28;20377;-61
2020/12/21 02:58:00;;;;;;;21.52;15.57;;;;;;;4.36;74.56;96514.63;4973782;28;20125;-61
2020/12/21 03:00:27;;;;;;;22.48;15.15;;;;;;;4.37;74.79;96511.66;4974051;28;20085;-63
2020/12/21 03:02:54;;;;;;;22.75;14.73;;;;;;;4.39;74.83;96517.53;4973963;28;20468;-61
2020/12/21 03:05:20;;;;;;;21.75;14.82;;;;;;;4.52;74.47;96513.44;4973587;28;20074;-62
2020/12/21 03:07:46;;;;;;;23.10;14.55;;;;;;;4.53;74.31;96522.28;4973785;28;20077;-61
2020/12/21 03:10:13;;;;;;;20.10;13.68;;;;;;;4.57;73.65;96520.63;4973868;28;20125;-62
2020/12/21 03:12:40;;;;;;;20.40;14.40;;;;;;;4.53;73.56;96527.63;4974116;28;20464;-61
2020/12/21 03:15:10;;;;;;;21.73;15.00;;;;;;;4.40;74.37;96543.25;4973755;28;20061;-59
2020/12/21 03:17:37;;;;;;;19.75;14.73;;;;;;;4.23;75.29;96526.75;4973358;28;20424;-61
2020/12/21 03:20:04;;;;;;;23.90;15.35;;;;;;;4.12;75.96;96530.53;4990109;23;20095;-61
2020/12/21 03:22:31;;;;;;;20.58;15.20;;;;;;;4.26;75.61;96512.81;4989750;28;20074;-61
2020/12/21 03:24:57;;;;;;;22.15;15.07;;;;;;;4.27;75.19;96521.63;4993052;28;20116;-62
2020/12/21 03:27:28;;;;;;;22.25;15.63;;;;;;;4.17;75.69;96514.47;4992101;28;20051;-62
2020/12/21 03:29:55;;;;;;;22.67;14.30;;;;;;;4.05;76.32;96516.66;4991550;28;20058;-63
2020/12/21 03:32:21;;;;;;;21.65;14.48;;;;;;;4.17;75.86;96511.78;4992975;28;20429;-62
2020/12/21 03:34:48;;;;;;;21.80;15.48;;;;;;;4.13;76.05;96516.91;5001666;28;20500;-61
2020/12/21 03:37:15;;;;;;;21.98;15.07;;;;;;;4.04;76.61;96523.09;4976504;28;20051;-62
2020/12/21 03:39:41;;;;;;;21.75;15.20;;;;;;;3.88;77.14;96509.78;4973343;28;20077;-62
2020/12/21 03:42:08;;;;;;;22.33;14.32;;;;;;;3.95;77.11;96518.31;4973400;28;20134;-62
2020/12/21 03:44:34;;;;;;;25.70;16.45;;;;;;;4.03;77.06;96521.47;4973339;28;20104;-62
2020/12/21 03:47:01;;;;;;;22.08;14.98;;;;;;;4.17;76.75;96517.16;4971487;28;20093;-61
2020/12/21 03:49:28;;;;;;;23.48;16.55;;;;;;;4.18;76.46;96503.47;4973300;28;20120;-61
2020/12/21 03:51:54;;;;;;;21.48;14.88;;;;;;;4.10;76.96;96516.66;4973254;28;20061;-60
2020/12/21 03:54:22;;;;;;;20.05;14.10;;;;;;;4.21;76.64;96512.81;4988349;28;20386;-60
2020/12/21 03:56:49;;;;;;;20.10;14.75;;;;;;;4.39;76.05;96516.75;4971255;28;20054;-61
2020/12/21 03:59:15;;;;;;;23.90;15.25;;;;;;;4.52;75.64;96509.94;4973179;28;20066;-60
2020/12/21 04:01:43;;;;;;;19.38;14.32;;;;;;;4.48;75.76;96515.06;4973151;28;20502;-61
2020/12/21 04:04:09;;;;;;;20.70;14.25;;;;;;;4.37;76.39;96500.94;4973019;28;20078;-62
2020/12/21 04:06:36;;;;;;;22.45;15.73;;;;;;;4.42;76.19;96508.16;4970807;28;20092;-60
2020/12/21 04:09:04;;;;;;;21.60;15.25;;;;;;;4.48;75.98;96507.03;4972896;28;20504;-58
2020/12/21 04:11:31;;;;;;;22.48;15.55;;;;;;;4.52;75.89;96501.91;4973029;28;20053;-59
2020/12/21 04:13:57;;;;;;;22.60;15.40;;;;;;;4.57;75.81;96505.34;4973007;28;20047;-61
2020/12/21 04:16:24;;;;;;;21.33;14.88;;;;;;;4.56;75.99;96498.41;4971089;28;20051;-60
2020/12/21 04:18:50;;;;;;;25.17;16.90;;;;;;;4.67;75.92;96502.59;4987653;28;20461;-59
2020/12/21 04:21:17;;;;;;;22.80;16.08;;;;;;;4.57;76.35;96505.34;4972953;28;20128;-59
2020/12/21 04:23:43;;;;;;;22.70;15.63;;;;;;;4.68;75.87;96500.72;4972839;28;20058;-61
2020/12/21 04:26:10;;;;;;;22.02;15.75;;;;;;;4.79;75.59;96498.75;4972096;28;20575;-60
2020/12/21 04:28:37;;;;;;;23.65;15.60;;;;;;;4.84;75.25;96499.53;4972715;28;20054;-61
2020/12/21 04:31:05;;;;;;;24.48;15.40;;;;;;;4.83;75.53;96500.59;4972712;28;20054;-61
2020/12/21 04:33:33;;;;;;;22.92;15.93;;;;;;;4.86;75.46;96496.56;4972854;28;20086;-60
2020/12/21 04:36:14;;;;;;;22.63;15.38;;;;;;;4.93;75.19;96487.09;4972051;28;20047;-59
2020/12/21 04:38:42;;;;;;;21.95;15.30;;;;;;;4.87;75.17;96495.47;4972536;28;20110;-60
2020/12/21 04:41:10;;;;;;;21.58;14.70;;;;;;;4.73;76.21;96489.16;4972795;28;20125;-59
2020/12/21 04:43:37;;;;;;;27.02;15.70;;;;;;;4.71;76.36;96489.41;4972558;28;20579;-61
2020/12/21 04:46:06;;;;;;;22.63;15.13;;;;;;;4.76;76.29;96497.44;4972128;28;20472;-62
2020/12/21 04:48:39;;;;;;;20.17;15.13;;;;;;;4.86;76.35;96491.97;4972460;28;20175;-62
2020/12/21 04:51:09;;;;;;;24.23;15.35;;;;;;;4.75;76.67;96493.16;4972839;28;20073;-62
2020/12/21 04:53:39;;;;;;;22.15;15.75;;;;;;;4.86;76.24;96486.63;4972834;28;20145;-62
2020/12/21 04:56:06;;;;;;;23.38;14.65;;;;;;;4.98;75.67;96494.31;4971867;28;20151;-62
2020/12/21 04:58:33;;;;;;;21.13;14.38;;;;;;;5.01;75.70;96492.94;4972790;28;20134;-62
2020/12/21 05:00:59;;;;;;;21.38;13.93;;;;;;;5.08;75.65;96490.72;4972379;28;20079;-62
2020/12/21 05:03:26;;;;;;;19.17;14.25;;;;;;;5.13;75.85;96504.91;4972632;28;20058;-62
2020/12/21 05:05:52;;;;;;;20.08;13.68;;;;;;;5.29;75.43;96510.88;4986807;28;20075;-62
2020/12/21 05:08:24;;;;;;;19.88;14.60;;;;;;;5.23;76.28;96504.00;4972189;28;20049;-62
2020/12/21 05:10:58;;;;;;;19.67;14.90;;;;;;;5.16;76.63;96504.31;4972425;28;20209;-62
2020/12/21 05:13:29;;;;;;;20.05;14.43;;;;;;;5.09;77.11;96495.00;4972424;28;20588;-61
2020/12/21 05:15:56;;;;;;;21.98;14.90;;;;;;;5.15;76.58;96488.50;4971787;28;20054;-61
2020/12/21 05:18:28;;;;;;;22.83;15.18;;;;;;;5.15;77.28;96488.50;4975607;28;20524;-62
2020/12/21 05:21:00;;;;;;;22.42;15.00;;;;;;;5.20;77.24;96491.16;4976091;28;20499;-62
2020/12/21 05:23:28;;;;;;;;;;;;;;;5.43;76.38;96494.94;4976490;28;20042;-62
2020/12/21 05:26:02;;;;;;;23.15;14.02;;;;;;;5.25;76.72;96501.81;4975369;28;20291;-62
2020/12/21 05:28:33;;;;;;;20.58;14.15;;;;;;;5.21;76.80;96490.06;4974666;28;20071;-62
2020/12/21 05:31:02;;;;;;;24.20;15.35;;;;;;;5.09;77.22;96501.16;4975790;28;20539;-62
2020/12/21 05:33:29;;;;;;;25.67;15.10;;;;;;;5.27;76.55;96491.59;4975754;28;20137;-62
2020/12/21 05:36:08;;;;;;;22.52;14.25;;;;;;;5.39;76.25;96488.50;4975498;28;20500;-62
2020/12/21 05:38:35;;;;;;;24.52;14.57;;;;;;;5.48;75.87;96491.38;4990429;28;20057;-62
2020/12/21 05:41:09;;;;;;;22.60;14.13;;;;;;;5.53;75.92;96477.91;4975473;28;20082;-62
2020/12/21 05:43:38;;;;;;;20.05;13.57;;;;;;;5.64;75.75;96476.69;4975526;28;20126;-60
2020/12/21 05:46:11;;;;;;;18.73;14.35;;;;;;;5.72;76.19;96470.72;4974602;28;20066;-60
2020/12/21 05:48:46;;;;;;;21.05;14.05;;;;;;;5.70;76.16;96472.06;4975350;28;20522;-61
2020/12/21 05:51:24;;;;;;;20.40;14.02;;;;;;;5.76;75.88;96468.25;4975299;28;20504;-60
2020/12/21 05:53:55;;;;;;;21.92;13.88;;;;;;;5.72;76.13;96465.34;4975176;28;20105;-60
2020/12/21 05:56:24;;;;;;;19.30;14.38;;;;;;;5.74;76.30;96465.03;4974770;28;20412;-61
2020/12/21 05:58:52;;;;;;;18.33;13.38;;;;;;;5.63;76.92;96454.44;4974984;28;20066;-62
2020/12/21 06:01:20;;;;;;;18.30;13.90;;;;;;;5.63;77.28;96456.31;4975174;28;20130;-62
2020/12/21 06:03:46;;;;;;;21.85;14.18;;;;;;;5.67;77.32;96448.47;4975065;28;20051;-62
2020/12/21 06:06:15;;;;;;;20.52;14.43;;;;;;;5.76;76.95;96450.25;4974697;28;20082;-62
2020/12/21 06:08:45;;;;;;;19.83;14.52;;;;;;;5.91;76.16;96440.38;4974916;28;20109;-62
2020/12/21 06:11:19;;;;;;;20.90;14.38;;;;;;;5.98;76.06;96446.22;4974974;28;20101;-62
2020/12/21 06:14:15;;;;;;;28.60;15.70;;;;;;;6.05;75.48;96435.94;4975015;28;20222;-62
2020/12/21 06:16:43;;;;;;;23.45;16.17;;;;;;;5.83;75.74;96445.31;4974274;28;20062;-63
2020/12/21 06:19:13;;;;;;;24.08;15.77;;;;;;;5.64;76.85;96439.13;4989578;28;20046;-63
2020/12/21 06:21:41;;;;;;;23.60;14.80;;;;;;;5.71;76.60;96428.81;4974591;28;20043;-62
2020/12/21 06:24:18;;;;;;;19.98;14.82;;;;;;;5.81;75.98;96417.94;4974626;28;20050;-62
2020/12/21 06:26:45;;;;;;;21.33;14.95;;;;;;;5.75;76.06;96415.59;4973956;28;20508;-62
2020/12/21 06:29:19;;;;;;;23.48;14.68;;;;;;;5.64;76.82;96428.38;4974069;28;20054;-61
2020/12/21 06:31:46;;;;;;;20.88;14.23;;;;;;;5.65;76.82;96415.75;4974687;28;20062;-62
2020/12/21 06:34:31;;;;;;;20.48;14.52;;;;;;;5.74;76.17;96422.88;4974699;28;20059;-62
2020/12/21 06:37:16;;;;;;;23.33;15.38;;;;;;;5.76;75.63;96431.44;4973908;28;20401;-62
2020/12/21 06:39:43;;;;;;;24.83;15.77;;;;;;;5.71;75.52;96414.59;4974437;28;20051;-61
2020/12/21 06:42:12;;;;;;;21.30;14.35;;;;;;;5.76;75.43;96427.97;4974615;28;20105;-62
2020/12/21 06:44:41;;;;;;;22.42;15.85;;;;;;;5.67;75.49;96427.81;4974405;28;20059;-62
2020/12/21 06:47:09;;;;;;;21.58;14.88;;;;;;;5.64;75.09;96431.06;4973673;28;20051;-62
2020/12/21 06:49:36;;;;;;;20.77;14.85;;;;;;;5.60;75.02;96433.53;4974182;28;20082;-62
2020/12/21 06:52:03;;;;;;;22.25;15.38;;;;;;;5.29;75.57;96441.13;4974383;28;20078;-62
2020/12/21 06:54:30;;;;;;;21.50;15.20;;;;;;;5.01;76.70;96439.31;4974239;28;20130;-62
2020/12/21 06:56:56;;;;;;;25.30;16.98;;;;;;;4.86;77.02;96430.31;4972181;28;20102;-63
2020/12/21 06:59:24;;;;;;;24.42;16.30;;;;;;;4.96;76.80;96431.31;4973840;28;20058;-63
2020/12/21 07:01:53;;;;;;;22.05;15.10;;;;;;;5.09;76.14;96439.47;4974357;28;20057;-62
2020/12/21 07:04:21;;;;;;;22.35;15.93;;;;;;;5.19;75.52;96437.75;4974003;28;20134;-62
2020/12/21 07:06:48;;;;;;;21.42;15.13;;;;;;;5.29;75.21;96441.13;4973176;28;20082;-62
2020/12/21 07:09:21;;;;;;;23.67;17.13;;;;;;;5.30;75.16;96447.31;4988537;28;20058;-63
2020/12/21 07:11:51;;;;;;;;;;;;;;;5.26;74.84;96449.75;4974376;28;20602;-63
2020/12/21 07:14:21;;;;;;;23.38;15.65;;;;;;;5.14;75.39;96449.34;4973865;28;19922;-63
2020/12/21 07:17:00;;;;;;;20.88;14.27;;;;;;;5.14;75.30;96447.47;4973190;28;20046;-62
2020/12/21 07:19:27;;;;;;;20.35;14.80;;;;;;;5.14;75.37;96449.34;4973570;28;20512;-63
2020/12/21 07:21:53;;;;;;;26.52;15.82;;;;;;;5.13;76.03;96445.88;4973521;28;20130;-63
2020/12/21 07:24:22;;;;;;;20.70;14.88;;;;;;;5.13;75.82;96435.16;4973714;28;20062;-63
2020/12/21 07:26:52;;;;;;;22.05;14.77;;;;;;;5.31;75.62;96438.16;4972892;28;20520;-61
2020/12/21 07:29:22;;;;;;;25.02;16.75;;;;;;;5.14;75.87;96441.31;4973120;28;20059;-61
2020/12/21 07:31:49;;;;;;;21.60;15.70;;;;;;;4.74;77.19;96443.28;4972163;28;20054;-60
2020/12/21 07:34:15;;;;;;;23.10;15.77;;;;;;;4.69;76.61;96446.03;4973464;28;20141;-60
2020/12/21 07:36:42;;;;;;;23.90;16.15;;;;;;;4.66;76.48;96431.31;4972587;28;20413;-61
2020/12/21 07:39:12;;;;;;;23.90;16.60;;;;;;;4.84;76.37;96451.28;4973097;28;20058;-61
2020/12/21 07:41:43;;;;;;;24.63;15.30;;;;;;;4.99;75.97;96446.81;4972927;28;20054;-61
2020/12/21 07:44:19;;;;;;;26.05;17.00;;;;;;;4.87;76.03;96453.34;4973292;28;20047;-61
2020/12/21 07:47:05;;;;;;;23.27;15.70;;;;;;;4.35;77.58;96467.47;4972359;28;20129;-61
2020/12/21 07:49:35;;;;;;;24.50;17.27;;;;;;;4.31;79.16;96471.78;4972991;28;20074;-61
2020/12/21 07:52:07;;;;;;;25.50;16.75;;;;;;;4.37;79.99;96468.78;4973013;28;20050;-61
2020/12/21 07:54:38;;;;;;;25.50;16.73;;;;;;;4.52;78.38;96475.09;4973141;28;20053;-61
2020/12/21 07:57:05;;;;;;;23.70;16.63;;;;;;;4.70;77.27;96479.78;4972308;28;20416;-61
2020/12/21 07:59:32;;;;;;;30.50;16.90;;;;;;;4.89;76.96;96480.69;4972772;28;20415;-61
2020/12/21 08:02:00;;;;;;;23.08;16.33;;;;;;;5.03;76.45;96488.88;4973187;28;20194;-62
2020/12/21 08:04:28;;;;;;;22.60;15.93;;;;;;;5.19;75.89;96491.41;4972963;28;20062;-61
2020/12/21 08:07:10;;;;;;;24.85;17.23;;;;;;;5.34;75.89;96486.69;4972872;28;20472;-61
2020/12/21 08:09:39;;;;;;;26.42;16.35;;;;;;;5.41;76.37;96489.03;4972904;28;20078;-61
2020/12/21 08:12:10;;;;;;;20.90;15.77;;;;;;;5.40;77.21;96484.75;4972762;28;20063;-62
2020/12/21 08:14:36;;;;;;;21.05;15.85;;;;;;;5.53;76.59;96475.22;4972837;28;20046;-62
2020/12/21 08:17:13;;;;;;;22.83;15.45;;;;;;;5.74;75.77;96473.88;4971816;28;20042;-62
2020/12/21 08:19:58;;;;;;;18.20;13.88;;;;;;;5.75;75.87;96470.13;4972417;28;20050;-62
2020/12/21 08:22:28;;;;;;;19.45;13.45;;;;;;;5.68;75.49;96444.69;4972760;28;20047;-62
2020/12/21 08:25:14;;;;;;;21.42;13.95;;;;;;;5.89;75.48;96461.38;4973749;28;20066;-62
2020/12/21 08:27:49;;;;;;;17.90;12.68;;;;;;;6.00;75.22;96457.47;4977239;28;20073;-62
2020/12/21 08:30:21;;;;;;;18.00;13.23;;;;;;;6.06;74.58;96461.69;4992155;28;20054;-62
2020/12/21 08:32:50;;;;;;;19.17;13.73;;;;;;;6.13;74.53;96454.06;4991765;28;20575;-62
2020/12/21 08:35:24;;;;;;;19.85;13.80;;;;;;;6.19;74.14;96452.91;4991211;28;20116;-62
2020/12/21 08:37:50;;;;;;;21.00;13.20;;;;;;;5.93;75.53;96451.66;4987582;28;20450;-61
2020/12/21 08:40:21;;;;;;;21.08;13.75;;;;;;;6.11;74.75;96450.88;4992000;28;20484;-62
2020/12/21 08:42:48;;;;;;;18.65;13.68;;;;;;;6.03;75.05;96448.84;4991108;28;20133;-62
2020/12/21 08:45:21;;;;;;;20.33;13.45;;;;;;;6.06;75.26;96449.06;4989883;28;20060;-62
2020/12/21 08:47:49;;;;;;;20.45;12.93;;;;;;;6.12;75.21;96451.69;4992070;28;20043;-62
2020/12/21 08:50:15;;;;;;;18.98;14.35;;;;;;;6.25;74.49;96451.75;4992135;28;20488;-62
2020/12/21 08:52:42;;;;;;;18.90;13.40;;;;;;;6.38;74.01;96444.03;4994162;28;20105;-62
2020/12/21 08:55:09;;;;;;;18.25;13.35;;;;;;;6.28;73.91;96445.78;4991491;28;20046;-61
2020/12/21 08:57:40;;;;;;;19.02;12.90;;;;;;;6.48;73.79;96449.25;4995485;28;20050;-62
2020/12/21 09:00:06;;;;;;;22.13;14.35;;;;;;;6.59;73.46;96450.69;4995496;28;20236;-62
2020/12/21 09:02:33;;;;;;;18.50;12.52;;;;;;;6.51;73.84;96448.66;4993843;28;20085;-62
2020/12/21 09:04:59;;;;;;;17.95;12.55;;;;;;;6.42;74.18;96445.03;4995425;28;20498;-62
2020/12/21 09:07:34;;;;;;;18.23;12.75;;;;;;;6.48;73.80;96441.19;4993977;28;20073;-62
2020/12/21 09:10:01;;;;;;;15.75;12.68;;;;;;;6.46;74.15;96451.44;4994887;28;20206;-62
2020/12/21 09:12:29;;;;;;;17.88;12.43;;;;;;;6.43;73.89;96439.38;4981334;28;20065;-62
2020/12/21 09:14:56;;;;;;;18.23;13.73;;;;;;;6.42;74.19;96445.84;4993446;28;20134;-62
2020/12/21 09:17:22;;;;;;;19.25;12.85;;;;;;;6.53;73.87;96449.97;4992197;28;20562;-62
2020/12/21 09:19:48;;;;;;;19.20;12.32;;;;;;;6.47;74.03;96448.47;4993430;28;20125;-61
2020/12/21 09:22:15;;;;;;;21.88;13.30;;;;;;;6.51;73.81;96451.34;4994199;28;20802;-64
2020/12/21 09:24:41;;;;;;;18.63;13.30;;;;;;;6.52;73.83;96461.81;4994668;28;20058;-61
2020/12/21 09:27:08;;;;;;;19.33;12.75;;;;;;;6.62;73.44;96439.34;4993238;28;20062;-61
2020/12/21 09:29:34;;;;;;;16.05;11.68;;;;;;;6.70;72.97;96437.88;4994987;28;20129;-61
2020/12/21 09:32:01;;;;;;;18.40;12.80;;;;;;;6.94;72.21;96438.53;4994265;28;20059;-62
2020/12/21 09:34:27;;;;;;;21.15;13.52;;;;;;;7.05;72.27;96446.41;4994898;28;20050;-62
2020/12/21 09:36:54;;;;;;;16.83;12.77;;;;;;;7.06;72.26;96442.66;4992716;28;20042;-62
2020/12/21 09:39:21;;;;;;;17.55;12.82;;;;;;;7.02;72.37;96445.13;4994947;28;20046;-62
2020/12/21 09:41:47;;;;;;;17.38;12.15;;;;;;;7.05;72.33;96436.44;4992408;28;20129;-62
2020/12/21 09:44:14;;;;;;;19.27;12.00;;;;;;;7.13;72.05;96435.75;4994780;28;20054;-62
2020/12/21 09:46:41;;;;;;;16.83;12.02;;;;;;;7.24;71.74;96434.47;4994310;28;20522;-62
2020/12/21 09:49:08;;;;;;;18.20;13.32;;;;;;;7.32;71.40;96418.75;4994691;28;20070;-62
2020/12/21 09:51:35;;;;;;;17.23;13.35;;;;;;;7.41;71.24;96420.44;4994644;28;20054;-62
2020/12/21 09:54:01;;;;;;;22.10;12.77;;;;;;;7.41;70.95;96403.47;4993352;28;20360;-62
2020/12/21 09:56:28;;;;;;;19.17;12.73;;;;;;;7.31;71.44;96400.97;4991270;28;20050;-62
2020/12/21 09:58:54;;;;;;;18.52;12.77;;;;;;;7.33;71.40;96398.78;4994733;28;20100;-62
2020/12/21 10:01:27;;;;;;;18.67;12.63;;;;;;;7.42;71.14;96388.94;4992758;28;20050;-62
2020/12/21 10:03:53;;;;;;;16.87;12.23;;;;;;;7.29;71.79;96392.41;4993709;28;20057;-62
2020/12/21 10:06:20;;;;;;;19.25;13.25;;;;;;;7.53;70.90;96389.50;4992442;28;20050;-62
2020/12/21 10:08:46;;;;;;;16.52;12.65;;;;;;;7.36;71.88;96376.66;4993215;28;20062;-62
2020/12/21 10:11:17;;;;;;;15.45;12.25;;;;;;;7.43;71.42;96379.75;4993624;28;20069;-63
2020/12/21 10:13:43;;;;;;;18.27;12.38;;;;;;;7.41;71.49;96368.47;4992656;28;20141;-62
2020/12/21 10:16:09;;;;;;;18.23;11.95;;;;;;;7.51;71.27;96368.28;4993404;28;20122;-62
2020/12/21 10:18:36;;;;;;;16.33;11.63;;;;;;;7.66;70.91;96369.84;4991250;28;20058;-62
2020/12/21 10:21:06;;;;;;;16.70;11.70;;;;;;;7.81;70.46;96374.09;4994219;28;20124;-62
2020/12/21 10:23:33;;;;;;;17.95;12.63;;;;;;;7.75;70.72;96367.22;4989409;28;20080;-61
2020/12/21 10:26:03;;;;;;;16.08;11.65;;;;;;;7.75;70.84;96372.63;4993389;28;20050;-60
2020/12/21 10:28:29;;;;;;;16.90;12.68;;;;;;;7.79;70.54;96362.81;4992073;28;20098;-63
2020/12/21 10:30:56;;;;;;;17.27;11.57;;;;;;;7.82;70.21;96362.22;4993481;28;20148;-62
2020/12/21 10:33:24;;;;;;;15.68;11.90;;;;;;;7.89;70.54;96371.47;4994167;28;20133;-62
2020/12/21 10:35:50;;;;;;;19.25;12.43;;;;;;;7.86;70.46;96369.38;4991327;28;20154;-63
2020/12/21 10:38:17;;;;;;;15.68;11.98;;;;;;;7.93;70.24;96366.28;4991114;28;20582;-60
2020/12/21 10:40:43;;;;;;;15.90;11.43;;;;;;;7.89;70.11;96362.59;4991877;28;20046;-63
2020/12/21 10:43:09;;;;;;;16.17;10.98;;;;;;;8.02;69.85;96366.34;4992961;28;20050;-63
2020/12/21 10:45:37;;;;;;;15.27;11.15;;;;;;;7.85;70.21;96367.78;4992919;28;20116;-63
2020/12/21 10:48:05;;;;;;;14.57;10.95;;;;;;;7.96;69.99;96362.97;4992934;28;20046;-63
2020/12/21 10:50:31;;;;;;;15.50;10.98;;;;;;;7.91;70.40;96363.09;4992763;28;20054;-63
2020/12/21 10:52:57;;;;;;;13.80;10.85;;;;;;;7.92;70.05;96362.00;4992830;28;20049;-62
2020/12/21 10:55:24;;;;;;;17.83;12.82;;;;;;;7.91;70.58;96360.41;4992243;28;20088;-63
2020/12/21 10:57:50;;;;;;;14.98;11.05;;;;;;;7.97;69.76;96365.38;4993763;28;20042;-63
2020/12/21 11:00:17;;;;;;;17.67;11.77;;;;;;;7.84;70.21;96370.81;4992654;28;20054;-63
2020/12/21 11:02:43;;;;;;;16.05;11.15;;;;;;;7.85;70.09;96370.47;4994353;28;20046;-64
2020/12/21 11:05:10;;;;;;;14.13;11.18;;;;;;;7.84;70.40;96365.41;4992592;28;20050;-62
2020/12/21 11:07:37;;;;;;;18.35;10.95;;;;;;;7.80;70.22;96350.94;4991001;28;20093;-62
2020/12/21 11:10:11;;;;;;;14.60;10.95;;;;;;;7.81;70.72;96361.44;4992884;28;20133;-63
2020/12/21 11:12:38;;;;;;;14.20;11.18;;;;;;;7.81;70.91;96364.13;4992487;28;20100;-62
2020/12/21 11:15:05;;;;;;;16.30;10.98;;;;;;;7.89;70.63;96354.50;4992973;28;20058;-63
2020/12/21 11:17:33;;;;;;;17.00;11.85;;;;;;;7.85;70.06;96356.22;4991444;28;20050;-62
2020/12/21 11:20:00;;;;;;;15.15;11.15;;;;;;;7.99;69.91;96359.66;4989857;28;20128;-62
2020/12/21 11:22:27;;;;;;;12.77;9.60;;;;;;;8.00;69.86;96353.19;4992983;28;20471;-61
2020/12/21 11:24:54;;;;;;;16.88;10.77;;;;;;;8.10;69.50;96355.66;4992953;28;20136;-62
2020/12/21 11:27:21;;;;;;;14.75;10.10;;;;;;;7.98;69.50;96358.06;4990875;28;20133;-62
2020/12/21 11:29:48;;;;;;;12.85;9.68;;;;;;;8.02;70.12;96361.75;4992741;28;20412;-62
2020/12/21 11:32:22;;;;;;;12.10;9.65;;;;;;;8.02;70.01;96352.88;4977295;28;20050;-62